Cottonport, LA (71327)

4:44 PM CDT on August 30, 2014 (GMT -0500)
APO - Cottonport | Change Station
CLOSE
Current Station
Personal Weather Station
Location: Cottonport, LA
Elevation: 66 ft
Nearby Weather Stations
Active Advisory: Flash Flood Watch

Elev 66 ft 30.98 °N, 92.06 °W | Updated 3 seconds ago

Rain
Rain
77.2 °F
Feels Like 79 °F
N
2.2
Wind Variable Wind from SW
Gusts 6.3 mph

Today
High -- | Low -- °F
--% Chance of Precip.
Yesterday
High -- | Low -- °F
Precip. -- in
6:43 AM 7:33 PM
Waxing Crescent, 25% visible
Pressure 30.00 in
Visibility 10.0 miles
Clouds Mostly Cloudy 900 ft
Overcast 1200 ft
Heat Index 79 °F
Dew Point 73 °F
Humidity 87%
Rainfall 1.09 in
Snow Depth Not available.
UV 2 out of 12
Pollen 2.60 out of 12
Air Quality Not available.
Flu Activity Not available.
METAR KOPL 302135Z AUTO 17005KT 10SM -RA BKN009 OVC012 24/23 A3000 RMK AO2 LTG DSNT E P0002 T02400233

More Conditions Fewer Conditions

Pressure 30.00 in
Visibility 10.0 miles
Clouds Mostly Cloudy 900 ft
Overcast 1200 ft
Heat Index 79 °F
Dew Point 73 °F
Humidity 87%
Rainfall 1.09 in
Snow Depth Not available.
UV 2 out of 12
Pollen 2.60 out of 12
Air Quality Not available.
Flu Activity Not available.
METAR KOPL 302135Z AUTO 17005KT 10SM -RA BKN009 OVC012 24/23 A3000 RMK AO2 LTG DSNT E P0002 T02400233

More Conditions Fewer Conditions

Nowcast | as of 3:46 PM CDT on August 30, 2014

A large area of mostly light to moderate rain with embedded pockets of heavy rain and thunderstorms will continue to move from the Gulf of Mexico northeast across coast from Port Arthur to Morgan City into Acadiana and central Louisiana. Across the East Texas lakes area and west central Louisiana scattered showers and a few thunderstorms will produce a period of heavy rain and occasional lightning strikes. Rainfall amounts across the area may approach an inch per hour in the heaviest storms.

×

10-Day Weather Forecast

Almanac

Astronomy

Aug. 30, 2014 Rise Set
Actual Time 6:43 AM CDT 7:33 PM CDT
Civil Twilight 6:18 AM CDT 7:58 PM CDT
Nautical Twilight 5:49 AM CDT 8:27 PM CDT
Astronomical Twilight 5:19 AM CDT 8:57 PM CDT
Moon 11:10 AM CDT 10:30 PM CDT
Length of Visible Light 13h 39m
Length of Day
12h 50m
Tomorrow will be 1m 47s shorter.
Waxing Crescent, 25% of the Moon is Illuminated
Today
Waxing Crescent
Sep 2
First Quarter
Sep 8
Full
Sep 15
Last Quarter
Sep 24
New

Today's Extremes

State Highs State Lows

Community

WunderPhotos

Upload Photos

1,748,647 photos uploaded!

WunderBlogs® & News

Nearby

Snow Depth

Station Depth Elevation
No new snow has been reported.

Earthquake Activity

City Distance Mag. Time & Date
No recent earthquake activity has been reported nearby.
Minimum magnitude displayed is 2.5.

Coastal Water Temperatures

Place Temperature
No Stations Reporting

Nearby Weather Stations